CheckWX is a tool to help pilots better visualize weather data.  It is not intended as a substitute for an official pre-flight weather briefing.

07:08:14 UTC

CYUB METAR
Tuktoyaktuk Airport
Tuktoyaktuk, Canada
Current

2 hours ago

CYUB 210500Z 08018G24KT 15SM SCT210 05/01 A3005 RMK CI3 MEDIUM PACK LAST OBS/NXT 211300Z SLP177
Observed
May-21 @ 05:00 UTC
Wind
  • 080° at 18 KTS
  • Gusting to 24 KTS
Visibility
15 SM
Flight Rules
VFR
Cloud Levels
  • Scattered at 21,000' AGL
Temperature
C / 41°F
Dewpoint
C / 34°F
Humidity
76%
Altimeter
30.05" Hg
Pressure
1017.62 hPa
Previous

3 hours ago

CYUB 210400Z 08018G24KT 15SM BKN220 05/01 A3005 RMK CI5 SLP176
Observed
May-21 @ 04:00 UTC
Wind
  • 080° at 18 KTS
  • Gusting to 24 KTS
Visibility
15 SM
Flight Rules
VFR
Cloud Levels
  • Broken at 22,000' AGL
Temperature
C / 41°F
Dewpoint
C / 34°F
Humidity
76%
Altimeter
30.05" Hg
Pressure
1017.62 hPa
Previous

4 hours ago

CYUB 210300Z 08020KT 15SM SCT210 05/01 A3005 RMK CI4 SLP177
Observed
May-21 @ 03:00 UTC
Wind
  • 080° at 20 KTS
Visibility
15 SM
Flight Rules
VFR
Cloud Levels
  • Scattered at 21,000' AGL
Temperature
C / 41°F
Dewpoint
C / 34°F
Humidity
76%
Altimeter
30.05" Hg
Pressure
1017.62 hPa